Aviation Digital Data Service (ADDS)

Output produced by METARs form (0558 UTC 19 March 2019)
found at http://www.aviationweather.gov/metar/data/
 
OKAS 190456Z VRB05KT 9999 CLR 16/M02 A3015 RMK AO2A SLP209 WND DATA ESTMD T01551020 PA +261
TAF OKAS 182300Z 1823/2005 24006KT 9000 HZ SKC QNH3008INS 
     BECMG 1906/1907 29012G18KT 9000 HZ SKC QNH3009INS 
     BECMG 1917/1918 33009KT 9999 NSW SKC QNH3005INS 
     BECMG 2002/2003 VRB06KT 9999 SKC QNH3000INS TX23/1912Z TN10/1904Z
       
OKBK 190500Z 28003KT 7000 SKC 16/M00 Q1020 NOSIG
TAF OKBK 190445Z 1906/2012 34012KT 7000 SKC 
     TEMPO 1920/2004 VRB03KT